createdAt,value
2022-11-15T00:01:20.947Z,0.75
2022-11-15T00:03:25.557Z,1.15
2022-11-15T00:05:27.775Z,0.60
2022-11-15T00:07:54.182Z,1.20
2022-11-15T00:09:51.170Z,0.85
2022-11-15T00:11:52.978Z,0.70
2022-11-15T00:13:58.514Z,0.68
2022-11-15T00:16:02.001Z,0.70
2022-11-15T00:18:05.452Z,0.70
2022-11-15T00:20:07.803Z,0.82
2022-11-15T00:22:09.473Z,1.33
2022-11-15T00:24:11.252Z,0.90
2022-11-15T00:26:15.265Z,0.68
2022-11-15T00:28:16.969Z,0.57
2022-11-15T00:30:19.015Z,0.50
2022-11-15T00:32:20.722Z,0.82
2022-11-15T00:34:22.443Z,0.68
2022-11-15T00:36:24.450Z,1.13
2022-11-15T00:38:26.142Z,0.93
2022-11-15T00:40:28.114Z,0.90
2022-11-15T00:42:29.758Z,0.70
2022-11-15T00:44:31.486Z,1.40
2022-11-15T00:46:33.132Z,1.50
2022-11-15T00:48:34.874Z,0.90
2022-11-15T00:50:36.539Z,0.90
2022-11-15T00:52:38.414Z,0.85
2022-11-15T00:54:40.110Z,0.77
2022-11-15T00:56:41.777Z,0.82
2022-11-15T00:58:43.470Z,0.75
2022-11-15T01:00:45.232Z,0.70
2022-11-15T01:02:47.030Z,0.93
2022-11-15T01:04:48.727Z,1.23
2022-11-15T01:06:50.502Z,1.17
2022-11-15T01:08:52.497Z,0.60
2022-11-15T01:10:54.123Z,0.77
2022-11-15T01:12:55.896Z,1.30
2022-11-15T01:14:57.840Z,0.47
2022-11-15T01:16:59.509Z,0.85
2022-11-15T01:19:01.165Z,0.60
2022-11-15T01:21:07.837Z,1.42
2022-11-15T01:23:10.134Z,0.60
2022-11-15T01:25:11.993Z,0.75
2022-11-15T01:27:13.926Z,0.90
2022-11-15T01:29:15.663Z,0.73
2022-11-15T01:31:20.759Z,1.02
2022-11-15T01:33:22.447Z,0.73
2022-11-15T01:35:24.193Z,1.08
2022-11-15T01:37:25.928Z,0.60
2022-11-15T01:39:27.848Z,0.70
2022-11-15T01:41:33.288Z,0.82
2022-11-15T01:43:37.668Z,1.25
2022-11-15T01:45:39.907Z,0.90
2022-11-15T01:47:49.793Z,0.80
2022-11-15T01:50:05.203Z,1.23
2022-11-15T01:52:11.657Z,0.82
2022-11-15T01:54:17.569Z,0.50
2022-11-15T01:56:26.504Z,0.55
2022-11-15T01:58:28.208Z,0.55
2022-11-15T02:00:31.703Z,0.50
2022-11-15T02:02:42.506Z,0.75
2022-11-15T02:06:49.324Z,0.50
2022-11-15T02:08:52.081Z,1.33
2022-11-15T02:10:53.849Z,1.48
2022-11-15T02:13:00.797Z,0.57
2022-11-15T02:15:03.933Z,0.57
2022-11-15T02:17:14.399Z,0.80
2022-11-15T02:19:34.418Z,0.82
2022-11-15T02:22:01.036Z,0.60
2022-11-15T02:24:31.589Z,0.70
2022-11-15T02:27:18.351Z,0.57
2022-11-15T02:29:39.001Z,0.95
2022-11-15T02:31:49.556Z,0.73
2022-11-15T02:34:20.882Z,0.65
2022-11-15T02:36:50.085Z,0.65
2022-11-15T02:39:01.061Z,0.45
2022-11-15T02:41:11.169Z,0.57
2022-11-15T02:43:37.558Z,0.30
2022-11-15T02:45:49.621Z,1.13
2022-11-15T02:47:55.963Z,0.60
2022-11-15T02:50:06.229Z,0.68
2022-11-15T02:52:07.997Z,0.75
2022-11-15T02:54:22.166Z,1.08
2022-11-15T02:56:23.864Z,0.70
2022-11-15T02:58:43.700Z,0.77
2022-11-15T03:01:05.597Z,0.93
2022-11-15T03:03:38.026Z,0.40
2022-11-15T03:05:51.538Z,0.80
2022-11-15T03:08:06.578Z,0.77
2022-11-15T03:10:22.487Z,0.57
2022-11-15T03:13:01.254Z,0.85
2022-11-15T03:15:11.044Z,0.50
2022-11-15T03:17:27.618Z,0.73
2022-11-15T03:19:51.457Z,0.65
2022-11-15T03:21:56.287Z,0.55
2022-11-15T03:24:06.469Z,0.50
2022-11-15T03:26:15.644Z,1.25
2022-11-15T03:28:43.884Z,0.95
2022-11-15T03:30:48.962Z,0.75
2022-11-15T03:32:56.870Z,0.60
2022-11-15T03:35:24.696Z,0.43
2022-11-15T03:37:42.731Z,1.30
2022-11-15T03:39:45.025Z,0.68
2022-11-15T03:41:50.123Z,0.68
2022-11-15T03:44:02.734Z,0.88
2022-11-15T03:46:41.192Z,0.50
2022-11-15T03:48:50.386Z,2.03
2022-11-15T03:50:52.355Z,0.60
2022-11-15T03:52:56.042Z,0.65
2022-11-15T03:54:58.303Z,0.88
2022-11-15T03:57:00.009Z,0.95
2022-11-15T03:59:01.878Z,1.85
2022-11-15T04:01:03.759Z,0.45
2022-11-15T04:03:05.607Z,0.90
2022-11-15T04:05:07.644Z,1.05
2022-11-15T04:07:09.527Z,0.70
2022-11-15T04:09:11.689Z,0.63
2022-11-15T04:11:13.327Z,0.95
2022-11-15T04:13:14.964Z,0.68
2022-11-15T04:15:19.641Z,0.88
2022-11-15T04:17:21.578Z,1.80
2022-11-15T04:19:41.746Z,1.25
2022-11-15T04:22:02.089Z,0.68
2022-11-15T04:24:15.962Z,0.65
2022-11-15T04:26:20.823Z,0.60
2022-11-15T04:28:23.393Z,1.35
2022-11-15T04:30:25.087Z,1.15
2022-11-15T04:32:26.797Z,0.88
2022-11-15T04:34:28.445Z,0.70
2022-11-15T04:36:48.845Z,0.90
2022-11-15T04:38:50.488Z,1.02
2022-11-15T04:40:52.515Z,0.60
2022-11-15T04:42:55.520Z,0.80
2022-11-15T04:45:00.516Z,0.98
2022-11-15T04:47:02.951Z,0.75
2022-11-15T04:49:04.670Z,0.70
2022-11-15T04:51:06.379Z,0.70
2022-11-15T04:53:08.069Z,0.65
2022-11-15T04:55:14.036Z,1.35
2022-11-15T04:57:15.927Z,0.98
2022-11-15T04:59:17.641Z,0.68
2022-11-15T05:01:19.385Z,1.10
2022-11-15T05:03:39.727Z,1.23
2022-11-15T05:05:41.607Z,0.55
2022-11-15T05:07:43.685Z,0.52
2022-11-15T05:09:45.445Z,0.70
2022-11-15T05:11:47.878Z,0.60
2022-11-15T05:13:49.784Z,0.40
2022-11-15T05:15:51.494Z,0.50
2022-11-15T05:17:59.065Z,0.98
2022-11-15T05:20:00.814Z,1.35
2022-11-15T05:22:02.529Z,0.60
2022-11-15T05:24:04.927Z,0.80
2022-11-15T05:26:09.376Z,0.85
2022-11-15T05:28:11.236Z,2.15
2022-11-15T05:30:12.943Z,1.55
2022-11-15T05:32:14.907Z,0.65
2022-11-15T05:34:18.341Z,1.05
2022-11-15T05:36:39.552Z,0.80
2022-11-15T05:38:41.473Z,0.90
2022-11-15T05:40:43.239Z,1.00
2022-11-15T05:42:56.611Z,1.23
2022-11-15T05:44:59.657Z,0.93
2022-11-15T05:47:01.450Z,0.75
2022-11-15T05:49:03.746Z,1.35
2022-11-15T05:51:07.773Z,0.50
2022-11-15T05:53:12.410Z,1.00
2022-11-15T05:55:14.897Z,1.30
2022-11-15T05:57:17.422Z,0.90
2022-11-15T05:59:20.007Z,0.98
2022-11-15T06:01:22.094Z,0.57
2022-11-15T06:03:23.800Z,0.90
2022-11-15T06:05:25.623Z,0.90
2022-11-15T06:07:27.328Z,1.00
2022-11-15T06:09:30.147Z,0.85
2022-11-15T06:11:31.881Z,1.00
2022-11-15T06:13:34.660Z,0.88
2022-11-15T06:15:36.393Z,1.17
2022-11-15T06:17:38.226Z,1.00
2022-11-15T06:19:39.855Z,1.13
2022-11-15T06:21:41.747Z,0.75
2022-11-15T06:23:43.644Z,0.88
2022-11-15T06:25:45.444Z,0.47
2022-11-15T06:27:52.964Z,0.77
2022-11-15T06:29:54.744Z,0.85
2022-11-15T06:31:56.401Z,0.70
2022-11-15T06:33:58.063Z,0.85
2022-11-15T06:36:09.228Z,1.23
2022-11-15T06:38:13.726Z,1.33
2022-11-15T06:40:15.843Z,0.80
2022-11-15T06:42:17.585Z,0.82
2022-11-15T06:44:19.255Z,1.00
2022-11-15T06:46:20.965Z,1.20
2022-11-15T06:48:22.711Z,0.70
2022-11-15T06:50:24.748Z,0.98
2022-11-15T06:52:26.408Z,1.02
2022-11-15T06:54:28.260Z,1.38
2022-11-15T06:56:30.151Z,1.17
2022-11-15T06:58:32.332Z,1.35
2022-11-15T07:00:34.448Z,0.80
2022-11-15T07:02:36.102Z,1.10
2022-11-15T07:04:37.805Z,1.60
2022-11-15T07:06:39.606Z,1.70
2022-11-15T07:08:42.792Z,0.90
2022-11-15T07:10:44.465Z,0.80
2022-11-15T07:12:49.849Z,1.17
2022-11-15T07:14:51.591Z,0.80
2022-11-15T07:16:53.266Z,0.98
2022-11-15T07:18:54.962Z,1.15
2022-11-15T07:20:56.719Z,0.75
2022-11-15T07:23:05.863Z,0.80
2022-11-15T07:25:08.276Z,0.70
2022-11-15T07:27:10.509Z,0.65
2022-11-15T07:29:12.447Z,0.93
2022-11-15T07:31:14.114Z,1.17
2022-11-15T07:33:15.776Z,1.17
2022-11-15T07:35:17.409Z,0.90
2022-11-15T07:37:19.739Z,1.40
2022-11-15T07:39:21.446Z,1.10
2022-11-15T07:41:23.127Z,1.30
2022-11-15T07:43:24.885Z,0.60
2022-11-15T07:45:29.648Z,0.52
2022-11-15T07:47:31.430Z,0.63
2022-11-15T07:49:33.197Z,0.63
2022-11-15T07:51:34.877Z,0.70
2022-11-15T07:53:36.550Z,0.47
2022-11-15T07:55:38.596Z,1.17
2022-11-15T07:57:40.309Z,0.50
2022-11-15T07:59:41.988Z,0.50
2022-11-15T08:01:46.289Z,0.88
2022-11-15T08:03:48.113Z,0.55
2022-11-15T08:05:53.661Z,0.80
2022-11-15T08:07:59.156Z,0.73
2022-11-15T08:10:05.040Z,1.20
2022-11-15T08:12:06.954Z,0.65
2022-11-15T08:14:08.619Z,0.30
2022-11-15T08:16:10.275Z,0.43
2022-11-15T08:18:16.622Z,0.52
2022-11-15T08:20:18.334Z,0.40
2022-11-15T08:22:20.391Z,0.50
2022-11-15T08:24:22.209Z,0.38
2022-11-15T08:26:25.856Z,0.45
2022-11-15T08:28:27.588Z,0.30
2022-11-15T08:30:31.285Z,0.22
2022-11-15T08:32:33.086Z,0.47
2022-11-15T08:34:34.854Z,0.60
2022-11-15T08:36:44.559Z,0.32
2022-11-15T08:38:47.888Z,0.63
2022-11-15T08:40:50.005Z,0.50
2022-11-15T08:42:54.955Z,0.20
2022-11-15T08:44:56.893Z,0.30
2022-11-15T08:46:58.690Z,0.32
2022-11-15T08:49:00.420Z,0.52
2022-11-15T08:51:02.147Z,0.40
2022-11-15T08:53:09.645Z,0.40
2022-11-15T08:55:11.302Z,0.20
2022-11-15T08:57:13.491Z,0.20
2022-11-15T08:59:15.234Z,0.32
2022-11-15T09:01:19.569Z,0.30
2022-11-15T09:03:21.757Z,0.57
2022-11-15T09:05:23.731Z,0.20
2022-11-15T09:07:25.655Z,0.28
2022-11-15T09:09:27.359Z,0.40
2022-11-15T09:11:29.069Z,0.25
2022-11-15T09:13:30.780Z,0.30
2022-11-15T09:15:32.526Z,0.25
2022-11-15T09:17:34.350Z,0.30
2022-11-15T09:19:36.152Z,0.35
2022-11-15T09:21:37.850Z,0.10
2022-11-15T09:23:39.828Z,0.10
2022-11-15T09:25:41.487Z,0.50
2022-11-15T09:27:43.145Z,0.20
2022-11-15T09:29:44.789Z,0.20
2022-11-15T09:31:46.545Z,0.20
2022-11-15T09:33:48.241Z,0.20
2022-11-15T09:35:49.932Z,0.13
2022-11-15T09:37:56.185Z,0.30
2022-11-15T09:39:58.242Z,0.30
2022-11-15T09:42:26.107Z,0.20
2022-11-15T09:44:46.356Z,0.10
2022-11-15T09:47:43.489Z,0.10
2022-11-15T09:49:45.549Z,0.20
2022-11-15T09:51:51.297Z,0.30
2022-11-15T09:54:45.499Z,0.20
2022-11-15T09:56:31.750Z,0.32
2022-11-15T09:59:04.845Z,0.20
2022-11-15T10:01:17.435Z,0.20
2022-11-15T10:03:36.067Z,0.20
2022-11-15T10:05:48.529Z,0.25
2022-11-15T10:08:00.604Z,0.20
2022-11-15T10:10:12.885Z,0.20
2022-11-15T10:12:15.375Z,0.32
2022-11-15T10:14:22.947Z,0.28
2022-11-15T10:17:18.217Z,0.20
2022-11-15T10:19:32.906Z,0.30
2022-11-15T10:22:02.354Z,0.40
2022-11-15T10:24:12.328Z,0.20
2022-11-15T10:26:17.489Z,0.13
2022-11-15T10:28:26.972Z,0.30
2022-11-15T10:30:37.015Z,0.50
2022-11-15T10:32:44.354Z,0.20
2022-11-15T10:34:46.827Z,0.40
2022-11-15T10:36:57.403Z,0.40
2022-11-15T10:38:59.521Z,0.47
2022-11-15T10:41:08.827Z,0.20
2022-11-15T10:43:10.395Z,0.40
2022-11-15T10:45:39.305Z,0.80
2022-11-15T10:47:40.970Z,0.30
2022-11-15T10:50:15.343Z,0.32
2022-11-15T10:52:20.422Z,0.40
2022-11-15T10:54:29.931Z,0.30
2022-11-15T10:56:31.716Z,0.40
2022-11-15T10:58:54.190Z,1.00
2022-11-15T11:00:55.884Z,0.60
2022-11-15T11:02:57.560Z,0.60
2022-11-15T11:05:00.519Z,0.60
2022-11-15T11:07:02.199Z,0.40
2022-11-15T11:09:07.017Z,0.50
2022-11-15T11:11:09.685Z,0.43
2022-11-15T11:13:15.493Z,0.43
2022-11-15T11:15:18.122Z,0.90
2022-11-15T11:17:44.223Z,0.50
2022-11-15T11:20:35.417Z,0.50
2022-11-15T11:23:21.645Z,0.68
2022-11-15T11:25:41.672Z,0.30
2022-11-15T11:28:27.679Z,0.30
2022-11-15T11:30:35.365Z,0.40
2022-11-15T11:32:45.582Z,0.25
2022-11-15T11:35:14.313Z,0.60
2022-11-15T11:37:25.160Z,0.50
2022-11-15T11:39:34.609Z,0.65
2022-11-15T11:42:01.606Z,0.30
2022-11-15T11:44:27.879Z,0.30
2022-11-15T11:46:29.544Z,0.40
2022-11-15T11:48:42.320Z,0.40
2022-11-15T11:50:46.800Z,0.40
2022-11-15T11:53:04.419Z,0.43
2022-11-15T11:55:41.280Z,0.20
2022-11-15T11:57:52.047Z,0.40
2022-11-15T12:02:26.253Z,0.30
2022-11-15T12:04:39.234Z,0.50
2022-11-15T12:06:59.182Z,0.20
2022-11-15T12:09:13.157Z,0.33
2022-11-15T12:11:25.609Z,0.30
2022-11-15T12:13:34.480Z,0.35
2022-11-15T12:16:02.887Z,0.30
2022-11-15T12:18:13.797Z,0.47
2022-11-15T12:20:17.926Z,0.30
2022-11-15T12:22:32.963Z,0.30
2022-11-15T12:24:49.918Z,0.30
2022-11-15T12:27:01.157Z,0.68
2022-11-15T12:29:12.248Z,0.73
2022-11-15T12:31:20.821Z,0.30
2022-11-15T12:33:38.201Z,0.77
2022-11-15T12:35:43.119Z,0.50
2022-11-15T12:37:58.993Z,0.40
2022-11-15T12:40:27.155Z,0.77
2022-11-15T12:42:31.790Z,0.40
2022-11-15T12:44:33.876Z,1.05
2022-11-15T12:46:42.367Z,0.93
2022-11-15T12:48:43.953Z,1.85
2022-11-15T12:51:06.089Z,1.08
2022-11-15T12:53:26.295Z,0.38
2022-11-15T12:55:34.175Z,0.52
2022-11-15T12:57:40.555Z,0.45
2022-11-15T13:00:14.690Z,0.52
2022-11-15T13:02:27.587Z,0.80
2022-11-15T13:04:30.951Z,0.60
2022-11-15T13:06:47.850Z,1.33
2022-11-15T13:08:51.902Z,0.70
2022-11-15T13:10:53.701Z,0.43
2022-11-15T13:13:08.446Z,0.70
2022-11-15T13:15:13.498Z,0.40
2022-11-15T13:17:21.032Z,0.57
2022-11-15T13:19:24.246Z,0.30
2022-11-15T13:21:44.722Z,0.75
2022-11-15T13:23:46.625Z,0.70
2022-11-15T13:26:13.098Z,0.60
2022-11-15T13:28:17.615Z,0.77
2022-11-15T13:30:24.701Z,0.50
2022-11-15T13:32:26.664Z,0.90
2022-11-15T13:34:53.156Z,0.50
2022-11-15T13:36:55.405Z,0.60
2022-11-15T13:39:15.390Z,0.30
2022-11-15T13:41:26.211Z,0.70
2022-11-15T13:45:34.387Z,0.80
2022-11-15T13:47:36.289Z,1.00
2022-11-15T13:49:38.869Z,0.85
2022-11-15T13:51:44.032Z,0.70
2022-11-15T13:53:52.045Z,0.52
2022-11-15T13:55:57.230Z,0.55
2022-11-15T13:58:07.515Z,1.05
2022-11-15T14:00:40.001Z,0.43
2022-11-15T14:02:42.335Z,0.63
2022-11-15T14:04:58.148Z,0.50
2022-11-15T14:07:02.261Z,0.80
2022-11-15T14:09:10.209Z,0.50
2022-11-15T14:11:18.327Z,0.73
2022-11-15T14:13:31.349Z,0.40
2022-11-15T14:15:40.305Z,0.30
2022-11-15T14:17:47.151Z,0.55
2022-11-15T14:19:52.294Z,0.82
2022-11-15T14:22:23.277Z,0.90
2022-11-15T14:24:32.408Z,1.17
2022-11-15T14:26:36.111Z,1.58
2022-11-15T14:28:40.269Z,1.15
2022-11-15T14:30:44.174Z,1.08
2022-11-15T14:32:58.072Z,1.27
2022-11-15T14:35:01.862Z,0.70
2022-11-15T14:37:03.487Z,0.68
2022-11-15T14:39:06.440Z,0.70
2022-11-15T14:41:22.591Z,0.57
2022-11-15T14:43:24.329Z,0.30
2022-11-15T14:45:28.411Z,0.50
2022-11-15T14:47:30.039Z,0.50
2022-11-15T14:49:31.667Z,0.50
2022-11-15T14:51:34.274Z,0.80
2022-11-15T14:53:35.983Z,0.80
2022-11-15T14:55:37.759Z,1.00
2022-11-15T14:57:39.454Z,0.85
2022-11-15T14:59:41.135Z,1.45
2022-11-15T15:01:43.084Z,0.60
2022-11-15T15:03:45.287Z,1.15
2022-11-15T15:05:48.064Z,0.57
2022-11-15T15:07:50.806Z,0.60
2022-11-15T15:10:02.736Z,0.50
2022-11-15T15:12:19.175Z,0.70
2022-11-15T15:14:20.864Z,0.38
2022-11-15T15:16:22.749Z,0.70
2022-11-15T15:18:24.367Z,0.75
2022-11-15T15:20:26.201Z,0.77
2022-11-15T15:22:30.984Z,0.55
2022-11-15T15:24:33.202Z,0.55
2022-11-15T15:26:37.416Z,0.75
2022-11-15T15:28:40.797Z,0.50
2022-11-15T15:30:42.904Z,0.63
2022-11-15T15:32:44.741Z,0.90
2022-11-15T15:34:46.522Z,0.43
2022-11-15T15:36:48.157Z,0.77
2022-11-15T15:38:49.853Z,0.73
2022-11-15T15:40:51.981Z,0.73
2022-11-15T15:42:54.248Z,0.70
2022-11-15T15:44:56.037Z,0.40
2022-11-15T15:46:58.926Z,0.43
2022-11-15T15:49:00.655Z,0.70
2022-11-15T15:51:06.872Z,1.00
2022-11-15T15:53:13.937Z,0.40
2022-11-15T15:55:15.615Z,0.57
2022-11-15T15:57:17.452Z,0.68
2022-11-15T15:59:19.095Z,0.80
2022-11-15T16:01:21.027Z,0.63
2022-11-15T16:03:23.422Z,0.82
2022-11-15T16:05:25.354Z,0.60
2022-11-15T16:07:29.315Z,0.73
2022-11-15T16:09:49.808Z,0.70
2022-11-15T16:11:51.436Z,0.65
2022-11-15T16:13:53.089Z,0.63
2022-11-15T16:15:56.165Z,0.50
2022-11-15T16:18:00.518Z,0.68
2022-11-15T16:20:02.673Z,0.90
2022-11-15T16:22:04.303Z,0.50
2022-11-15T16:24:06.368Z,0.73
2022-11-15T16:26:22.600Z,0.57
2022-11-15T16:28:29.046Z,0.65
2022-11-15T16:30:31.077Z,0.90
2022-11-15T16:32:34.029Z,0.77
2022-11-15T16:34:41.125Z,0.68
2022-11-15T16:36:44.598Z,0.52
2022-11-15T16:38:46.688Z,0.82
2022-11-15T16:40:48.700Z,0.57
2022-11-15T16:42:52.349Z,0.85
2022-11-15T16:44:53.990Z,0.52
2022-11-15T16:46:55.652Z,0.60
2022-11-15T16:48:57.697Z,1.00
2022-11-15T16:51:00.010Z,1.60
2022-11-15T16:53:02.105Z,0.75
2022-11-15T16:55:04.063Z,0.60
2022-11-15T16:57:05.695Z,0.47
2022-11-15T16:59:07.810Z,0.75
2022-11-15T17:01:20.437Z,0.60
2022-11-15T17:03:25.365Z,0.63
2022-11-15T17:05:30.080Z,0.63
2022-11-15T17:07:31.726Z,0.70
2022-11-15T17:09:34.350Z,0.70
2022-11-15T17:14:10.050Z,0.57
2022-11-15T17:16:16.763Z,1.20
2022-11-15T17:18:19.515Z,0.90
2022-11-15T17:20:23.795Z,1.27
2022-11-15T17:22:25.977Z,1.00
2022-11-15T17:24:27.790Z,0.63
2022-11-15T17:26:32.017Z,0.80
2022-11-15T17:28:35.772Z,1.38
2022-11-15T17:30:37.414Z,0.73
2022-11-15T17:32:39.329Z,1.52
2022-11-15T17:34:57.447Z,1.05
2022-11-15T17:36:59.163Z,0.75
2022-11-15T17:39:02.907Z,0.50
2022-11-15T17:41:09.479Z,1.00
2022-11-15T17:43:11.131Z,0.80
2022-11-15T17:45:13.431Z,0.70
2022-11-15T17:47:15.225Z,0.80
2022-11-15T17:49:17.008Z,0.90
2022-11-15T17:51:19.318Z,0.80
2022-11-15T17:53:21.474Z,0.60
2022-11-15T17:55:23.456Z,0.85
2022-11-15T17:57:25.103Z,0.52
2022-11-15T17:59:27.698Z,0.80
2022-11-15T18:01:31.861Z,0.63
2022-11-15T18:03:35.825Z,1.10
2022-11-15T18:05:37.633Z,0.80
2022-11-15T18:07:39.355Z,1.23
2022-11-15T18:09:44.090Z,0.75
2022-11-15T18:11:50.657Z,0.88
2022-11-15T18:13:56.858Z,1.05
2022-11-15T18:16:02.690Z,0.70
2022-11-15T18:18:04.790Z,0.65
2022-11-15T18:20:06.918Z,0.45
2022-11-15T18:22:10.336Z,0.60
2022-11-15T18:24:12.262Z,0.85
2022-11-15T18:26:16.292Z,0.45
2022-11-15T18:28:17.986Z,0.52
2022-11-15T18:30:19.787Z,0.60
2022-11-15T18:32:21.757Z,0.73
2022-11-15T18:34:25.604Z,0.80
2022-11-15T18:36:29.737Z,0.82
2022-11-15T18:38:32.041Z,0.60
2022-11-15T18:40:33.727Z,0.75
2022-11-15T18:42:35.382Z,0.77
2022-11-15T18:44:37.142Z,0.60
2022-11-15T18:46:42.164Z,0.90
2022-11-15T18:48:45.211Z,0.60
2022-11-15T18:50:46.895Z,0.45
2022-11-15T18:52:50.999Z,0.40
2022-11-15T18:54:53.113Z,1.05
2022-11-15T18:56:54.801Z,0.50
2022-11-15T18:58:58.864Z,0.30
2022-11-15T19:01:02.197Z,0.90
2022-11-15T19:03:03.948Z,0.57
2022-11-15T19:05:06.023Z,0.60
2022-11-15T19:07:07.680Z,0.73
2022-11-15T19:09:22.624Z,0.50
2022-11-15T19:11:29.063Z,0.63
2022-11-15T19:13:31.203Z,0.82
2022-11-15T19:15:53.574Z,0.70
2022-11-15T19:17:55.632Z,0.55
2022-11-15T19:19:57.585Z,1.02
2022-11-15T19:21:59.399Z,0.77
2022-11-15T19:24:05.967Z,1.33
2022-11-15T19:26:13.200Z,0.90
2022-11-15T19:28:14.842Z,0.80
2022-11-15T19:30:16.879Z,0.95
2022-11-15T19:32:18.713Z,0.80
2022-11-15T19:34:24.478Z,1.60
2022-11-15T19:36:29.183Z,0.90
2022-11-15T19:38:32.710Z,1.05
2022-11-15T19:40:35.180Z,0.88
2022-11-15T19:42:36.877Z,1.38
2022-11-15T19:44:38.605Z,1.02
2022-11-15T19:46:41.242Z,1.00
2022-11-15T19:48:43.222Z,1.10
2022-11-15T19:50:44.892Z,1.50
2022-11-15T19:52:51.188Z,1.33
2022-11-15T19:54:53.353Z,0.82
2022-11-15T19:56:55.221Z,0.68
2022-11-15T19:58:57.142Z,0.90
2022-11-15T20:01:16.352Z,0.95
2022-11-15T20:03:18.084Z,0.80
2022-11-15T20:05:19.753Z,0.77
2022-11-15T20:07:21.530Z,1.00
2022-11-15T20:09:25.935Z,1.10
2022-11-15T20:11:27.757Z,1.30
2022-11-15T20:13:29.711Z,1.73
2022-11-15T20:15:31.652Z,1.05
2022-11-15T20:17:39.653Z,1.30
2022-11-15T20:19:41.406Z,1.60
2022-11-15T20:21:44.297Z,1.27
2022-11-15T20:23:47.748Z,1.25
2022-11-15T20:25:49.537Z,1.10
2022-11-15T20:27:51.587Z,0.88
2022-11-15T20:29:54.699Z,1.00
2022-11-15T20:31:56.882Z,1.27
2022-11-15T20:33:59.195Z,1.13
2022-11-15T20:36:10.404Z,1.25
2022-11-15T20:38:12.711Z,1.10
2022-11-15T20:40:14.591Z,2.03
2022-11-15T20:42:19.472Z,0.80
2022-11-15T20:44:21.187Z,0.57
2022-11-15T20:46:22.858Z,1.05
2022-11-15T20:48:24.565Z,0.90
2022-11-15T20:50:42.116Z,1.20
2022-11-15T20:52:44.788Z,1.65
2022-11-15T20:54:46.446Z,1.23
2022-11-15T20:56:48.175Z,1.25
2022-11-15T20:58:50.885Z,1.23
2022-11-15T21:04:18.833Z,0.90
2022-11-15T21:06:21.437Z,1.00
2022-11-15T21:08:23.388Z,1.58
2022-11-15T21:10:43.609Z,1.25
2022-11-15T21:12:48.754Z,0.80
2022-11-15T21:14:52.567Z,1.35
2022-11-15T21:16:54.387Z,1.20
2022-11-15T21:18:56.317Z,1.10
2022-11-15T21:21:07.532Z,1.73
2022-11-15T21:23:09.250Z,1.17
2022-11-15T21:25:11.112Z,0.80
2022-11-15T21:27:13.089Z,1.35
2022-11-15T21:29:17.452Z,0.95
2022-11-15T21:31:19.249Z,1.15
2022-11-15T21:33:21.607Z,0.95
2022-11-15T21:35:23.910Z,0.98
2022-11-15T21:37:25.795Z,0.90
2022-11-15T21:39:27.560Z,1.50
2022-11-15T21:41:29.229Z,1.38
2022-11-15T21:43:30.883Z,1.00
2022-11-15T21:45:32.588Z,1.63
2022-11-15T21:47:34.208Z,1.50
2022-11-15T21:49:35.928Z,1.15
2022-11-15T21:51:38.016Z,1.35
2022-11-15T21:53:39.703Z,1.13
2022-11-15T21:55:41.406Z,1.00
2022-11-15T21:57:43.160Z,1.30
2022-11-15T22:00:03.410Z,1.00
2022-11-15T22:02:17.308Z,1.15
2022-11-15T22:04:19.158Z,1.40
2022-11-15T22:06:20.807Z,1.58
2022-11-15T22:08:23.115Z,1.75
2022-11-15T22:10:24.925Z,2.28
2022-11-15T22:12:29.660Z,1.98
2022-11-15T22:14:31.614Z,1.92
2022-11-15T22:16:33.382Z,3.20
2022-11-15T22:18:35.547Z,1.67
2022-11-15T22:20:44.459Z,1.58
2022-11-15T22:22:48.664Z,1.27
2022-11-15T22:24:50.376Z,1.83
2022-11-15T22:26:52.067Z,2.00
2022-11-15T22:28:53.757Z,2.30
2022-11-15T22:30:56.259Z,2.38
2022-11-15T22:32:57.891Z,2.47
2022-11-15T22:34:59.526Z,2.55
2022-11-15T22:39:22.840Z,1.52
2022-11-15T22:41:24.533Z,1.88
2022-11-15T22:43:27.323Z,1.85
2022-11-15T22:45:28.966Z,1.58
2022-11-15T22:47:30.729Z,1.90
2022-11-15T22:49:32.365Z,1.67
2022-11-15T22:51:34.000Z,1.75
2022-11-15T22:53:35.736Z,1.23
2022-11-15T22:55:43.952Z,1.75
2022-11-15T22:57:45.633Z,1.15
2022-11-15T22:59:47.425Z,1.20
2022-11-15T23:01:51.811Z,1.45
2022-11-15T23:03:53.471Z,1.52
2022-11-15T23:05:55.375Z,1.88
2022-11-15T23:07:57.033Z,1.10
2022-11-15T23:10:18.666Z,1.77
2022-11-15T23:12:46.755Z,1.10
2022-11-15T23:14:48.520Z,0.75
2022-11-15T23:16:50.419Z,1.20
2022-11-15T23:18:58.351Z,1.50
2022-11-15T23:21:00.222Z,1.92
2022-11-15T23:23:01.988Z,0.90
2022-11-15T23:25:04.325Z,1.15
2022-11-15T23:27:07.575Z,1.52
2022-11-15T23:29:11.344Z,0.82
2022-11-15T23:31:31.850Z,1.27
2022-11-15T23:33:52.036Z,1.23
2022-11-15T23:35:55.460Z,1.05
2022-11-15T23:37:57.143Z,1.35
2022-11-15T23:39:58.810Z,0.82
2022-11-15T23:42:05.938Z,1.60
2022-11-15T23:44:10.929Z,0.50
2022-11-15T23:46:12.586Z,0.93
2022-11-15T23:48:14.465Z,0.80
2022-11-15T23:50:16.512Z,0.70
2022-11-15T23:52:18.287Z,0.60
2022-11-15T23:54:19.946Z,1.15
2022-11-15T23:56:22.765Z,0.70
2022-11-15T23:58:24.582Z,0.70
